Aviation Digital Data Service (ADDS)

Output produced by METARs form (1334 UTC 13 December 2018)
found at http://www.aviationweather.gov/metar/data/
 
METAR text: LFLB 131300Z AUTO 35009KT 9999 OVC060 03/M02 Q1011 NOSIG
Conditions at: LFLB (CHAMBERY/AIX BAI, FR) observed 1300 UTC 13 December 2018
Temperature: 3.0°C (37°F)
Dewpoint: -2.0°C (28°F) [RH = 70%]
Pressure (altimeter): 29.85 inches Hg (1011.0 mb)
Winds: from the N (350 degrees) at 10 MPH (9 knots; 4.6 m/s)
Visibility: 6 or more miles (10+ km)
Ceiling: 6000 feet AGL
Clouds: overcast cloud deck at 6000 feet AGL
Weather: no significant weather observed at this time

Forecast for: LFLB (CHAMBERY/AIX BAI, FR)
Text: TAF LFLB 131100Z 1312/1412 VRB02KT 9999 OVC050
Forecast period: 1200 UTC 13 December 2018 to 1200 UTC 14 December 2018
Forecast type: FROM: standard forecast or significant change
Winds: variable direction winds at 2 MPH (2 knots; 1.0 m/s)
Visibility: 6 or more miles 10+ km)
Ceiling: 5000 feet AGL
Clouds: overcast cloud deck at 5000 feet AGL
Weather: no significant weather forecast for this period
Text: TEMPO 1317/1404 -SN BKN010
Forecast period: 1700 UTC 13 December 2018 to 0400 UTC 14 December 2018
Forecast type: TEMPORARY: The following changes expected for less than half the time period
Visibility: missing
Ceiling: 1000 feet AGL
Clouds: broken clouds at 1000 feet AGL
Weather: -SN  (light snow)